Time;durP1;ratioP1;P1;durP2;ratioP2;P2;SDS_P1;SDS_P2;PMS_P1;PMS_P2;Temp;Humidity;BMP_temperature;BMP_pressure;BME280_temperature;BME280_humidity;BME280_pressure;Samples;Min_cycle;Max_cycle;Signal;HPM_P1;HPM_P2
2022/08/24 00:00:24;;;;;;;4.07;1.17;;;;;;;22.14;59.47;100001.28;5097996;28;20491;-43
2022/08/24 00:02:51;;;;;;;5.13;1.73;;;;;;;22.12;60.04;99997.88;5097264;28;20408;-50
2022/08/24 00:05:20;;;;;;;2.80;1.50;;;;;;;22.11;59.76;100011.97;5101499;28;20075;-44
2022/08/24 00:07:48;;;;;;;2.63;1.30;;;;;;;22.11;60.61;100006.72;5095440;28;20039;-41
2022/08/24 00:10:16;;;;;;;4.03;1.77;;;;;;;22.08;60.74;100010.38;5098232;28;20094;-40
2022/08/24 00:12:43;;;;;;;2.10;1.20;;;;;;;22.07;61.64;100013.94;5097328;28;20055;-45
2022/08/24 00:15:12;;;;;;;1.90;1.45;;;;;;;22.06;61.38;99999.88;5093449;28;20044;-42
2022/08/24 00:17:39;;;;;;;3.25;1.63;;;;;;;22.04;61.96;100007.03;5093037;28;20077;-39
2022/08/24 00:20:10;;;;;;;2.67;1.02;;;;;;;22.04;61.92;100017.59;5097239;28;20052;-42
2022/08/24 00:22:39;;;;;;;5.28;1.30;;;;;;;22.02;62.39;100019.44;5095200;28;20122;-42
2022/08/24 00:25:10;;;;;;;3.83;0.95;;;;;;;22.03;62.34;100037.00;5075812;28;20046;-41
2022/08/24 00:27:41;;;;;;;3.20;1.20;;;;;;;22.03;63.08;100039.63;5086952;28;20055;-46
2022/08/24 00:30:10;;;;;;;;;;;;;;;21.83;63.31;100036.22;5083638;28;20072;-47
2022/08/24 00:32:39;;;;;;;2.83;1.17;;;;;;;21.96;63.15;100031.16;5084432;28;19931;-39
2022/08/24 00:35:08;;;;;;;3.08;1.58;;;;;;;21.97;63.12;100037.28;5083356;28;20047;-45
2022/08/24 00:37:37;;;;;;;2.47;1.35;;;;;;;21.96;63.41;100036.44;5078832;28;20049;-43
2022/08/24 00:40:10;;;;;;;2.80;1.15;;;;;;;21.95;63.72;100028.59;5083210;28;20052;-41
2022/08/24 00:42:38;;;;;;;4.50;2.03;;;;;;;21.92;63.63;100028.78;5085013;28;20048;-44
2022/08/24 00:45:09;;;;;;;3.40;1.42;;;;;;;21.91;64.29;100033.19;5082030;28;20044;-41
2022/08/24 00:47:43;;;;;;;3.50;1.50;;;;;;;21.88;63.95;100032.50;5082889;28;20101;-51
2022/08/24 00:50:21;;;;;;;3.13;1.27;;;;;;;21.87;63.92;100036.03;5082818;28;20076;-45
2022/08/24 00:52:55;;;;;;;5.10;1.20;;;;;;;21.84;64.32;100021.25;5082646;28;20480;-43
2022/08/24 00:55:29;;;;;;;4.70;1.40;;;;;;;21.81;64.53;100016.13;5086701;28;20453;-46
2022/08/24 00:58:00;;;;;;;3.80;1.55;;;;;;;21.78;64.38;100017.13;5085425;28;20044;-43
2022/08/24 01:00:31;;;;;;;3.70;1.30;;;;;;;21.76;64.69;100003.19;5077795;28;20101;-40
2022/08/24 01:03:03;;;;;;;3.03;1.50;;;;;;;21.74;65.02;100009.44;5080595;28;20075;-42
2022/08/24 01:05:32;;;;;;;3.33;1.65;;;;;;;21.71;65.19;100010.41;5081384;28;20044;-47
2022/08/24 01:08:00;;;;;;;;;;;;;;;21.47;66.20;99997.53;5087661;28;20040;-44
2022/08/24 01:10:31;;;;;;;5.63;1.40;;;;;;;21.62;65.43;99998.59;5086247;28;20115;-44
2022/08/24 01:13:00;;;;;;;3.42;1.42;;;;;;;21.65;65.57;99995.78;5082308;28;20052;-43
2022/08/24 01:15:30;;;;;;;2.97;1.42;;;;;;;21.67;65.30;99993.94;5084526;28;20057;-39
2022/08/24 01:20:48;;;;;;;2.60;1.25;;;;;;;21.66;65.66;99994.88;5083043;28;20570;-39
2022/08/24 01:23:44;;;;;;;3.30;1.65;;;;;;;21.64;65.65;100003.75;5083112;28;20043;-43
2022/08/24 01:26:17;;;;;;;3.85;1.52;;;;;;;21.72;65.13;100000.75;5081006;28;20040;-45
2022/08/24 01:28:48;;;;;;;3.72;1.38;;;;;;;21.72;65.92;99993.69;5086916;28;20105;-39
2022/08/24 01:31:20;;;;;;;3.10;1.52;;;;;;;21.73;65.83;99992.75;5079861;28;20117;-44
2022/08/24 01:33:50;;;;;;;2.78;1.42;;;;;;;21.74;65.68;99993.63;5082522;28;20127;-43
2022/08/24 01:36:26;;;;;;;3.75;1.60;;;;;;;21.72;65.92;100006.88;5084959;28;20068;-41
2022/08/24 01:38:59;;;;;;;3.50;1.42;;;;;;;21.73;65.76;100013.84;5088048;28;20052;-40
2022/08/24 01:41:26;;;;;;;3.30;1.00;;;;;;;21.72;65.15;100017.44;5081183;28;20058;-46
2022/08/24 01:43:57;;;;;;;2.65;1.40;;;;;;;21.74;65.76;100014.72;5082186;28;20093;-45
2022/08/24 01:46:24;;;;;;;2.25;1.33;;;;;;;21.74;65.54;100015.56;5082204;28;20051;-40
2022/08/24 01:48:51;;;;;;;3.28;1.20;;;;;;;21.75;65.44;100008.53;5082809;28;20068;-42
2022/08/24 01:51:19;;;;;;;2.65;1.08;;;;;;;21.76;65.24;100024.28;5082044;28;20437;-39
2022/08/24 01:53:46;;;;;;;3.95;0.98;;;;;;;21.75;65.81;100021.72;5080287;28;20093;-44
2022/08/24 01:56:13;;;;;;;3.08;0.95;;;;;;;21.76;65.57;100026.91;5084788;28;20051;-45
2022/08/24 01:58:44;;;;;;;3.65;1.40;;;;;;;21.77;65.35;100025.97;5082856;28;20044;-45
2022/08/24 02:01:12;;;;;;;2.20;1.25;;;;;;;21.79;65.43;100029.38;5078359;28;20070;-41
2022/08/24 02:03:39;;;;;;;4.63;1.23;;;;;;;21.78;65.84;100024.19;5081543;28;20048;-40
2022/08/24 02:06:06;;;;;;;1.75;0.80;;;;;;;21.77;65.58;100009.28;5078360;28;20492;-42
2022/08/24 02:08:34;;;;;;;1.83;1.00;;;;;;;21.75;65.34;100012.00;5080655;28;20044;-41
2022/08/24 02:11:05;;;;;;;3.08;1.27;;;;;;;21.74;65.62;100004.16;5080750;28;20043;-43
2022/08/24 02:13:32;;;;;;;2.05;0.90;;;;;;;21.72;65.59;100011.28;5083538;28;20059;-46
2022/08/24 02:15:59;;;;;;;1.90;0.85;;;;;;;21.68;65.62;100015.84;5082797;28;20047;-45
2022/08/24 02:18:26;;;;;;;1.88;1.02;;;;;;;21.66;65.61;100007.19;5081874;28;20048;-43
2022/08/24 02:20:53;;;;;;;1.88;0.75;;;;;;;21.61;65.24;100010.03;5084886;28;20105;-44
2022/08/24 02:23:21;;;;;;;2.10;0.82;;;;;;;21.60;65.84;100007.47;5077703;28;20503;-43
2022/08/24 02:25:47;;;;;;;2.70;0.85;;;;;;;21.57;65.56;100014.63;5079909;28;20056;-39
2022/08/24 02:28:14;;;;;;;2.15;1.10;;;;;;;21.55;65.48;100020.91;5080290;28;20048;-40
2022/08/24 02:30:41;;;;;;;1.98;0.90;;;;;;;21.50;65.69;100023.75;5080562;28;20124;-47
2022/08/24 02:33:07;;;;;;;3.78;1.05;;;;;;;21.48;65.61;100015.06;5081059;28;20044;-45
2022/08/24 02:35:34;;;;;;;2.55;1.00;;;;;;;21.44;66.37;100018.75;5082899;28;20052;-47
2022/08/24 02:38:01;;;;;;;2.83;1.00;;;;;;;21.45;65.73;100017.84;5081700;28;20048;-42
2022/08/24 02:40:28;;;;;;;2.65;1.08;;;;;;;21.43;66.10;100019.69;5081070;28;20040;-43
2022/08/24 02:42:55;;;;;;;3.00;1.00;;;;;;;21.40;65.86;100009.31;5082017;28;20133;-42
2022/08/24 02:45:21;;;;;;;2.17;0.88;;;;;;;21.39;66.22;100015.50;5079055;28;20052;-40
2022/08/24 02:47:48;;;;;;;2.13;1.48;;;;;;;21.37;66.10;100014.72;5081328;28;20052;-47
2022/08/24 02:50:16;;;;;;;2.40;0.90;;;;;;;21.35;65.55;100019.22;5080129;28;20166;-41
2022/08/24 02:52:43;;;;;;;1.90;1.35;;;;;;;21.31;65.70;100016.72;5078888;28;20440;-40
2022/08/24 02:55:14;;;;;;;2.83;1.00;;;;;;;21.30;65.58;100007.13;5082124;28;20056;-41
2022/08/24 02:57:46;;;;;;;2.00;1.00;;;;;;;21.25;66.05;100014.41;5076706;28;20120;-38
2022/08/24 03:00:15;;;;;;;2.20;0.85;;;;;;;21.22;66.27;100009.28;5075039;28;20700;-38
2022/08/24 03:02:42;;;;;;;2.45;1.00;;;;;;;21.17;66.12;100003.38;5074497;28;20036;-46
2022/08/24 03:05:09;;;;;;;2.47;0.93;;;;;;;21.14;66.27;100011.44;5081731;28;20483;-45
2022/08/24 03:07:36;;;;;;;3.55;0.98;;;;;;;21.08;66.08;100003.81;5083463;28;20094;-45
2022/08/24 03:10:05;;;;;;;2.17;0.98;;;;;;;21.04;66.25;100006.59;5084368;28;20040;-40
2022/08/24 03:12:33;;;;;;;3.53;0.90;;;;;;;20.99;66.71;100000.69;5082981;28;20067;-44
2022/08/24 03:15:01;;;;;;;4.18;1.48;;;;;;;20.93;66.70;99987.81;5078813;28;20052;-40
2022/08/24 03:17:32;;;;;;;2.47;1.02;;;;;;;20.91;66.58;99989.69;5080754;28;20051;-45
2022/08/24 03:20:00;;;;;;;2.30;1.00;;;;;;;20.88;66.41;99995.06;5082262;28;20056;-44
2022/08/24 03:22:27;;;;;;;3.28;1.27;;;;;;;20.83;66.62;99995.25;5079684;28;20048;-45
2022/08/24 03:24:53;;;;;;;3.55;1.00;;;;;;;20.79;66.92;99991.94;5077663;28;20053;-45
2022/08/24 03:27:20;;;;;;;2.22;1.00;;;;;;;20.77;66.94;99992.94;5080992;28;20068;-44
2022/08/24 03:29:46;;;;;;;2.72;0.95;;;;;;;20.72;67.17;99987.00;5083042;28;20052;-47
2022/08/24 03:32:15;;;;;;;2.15;0.95;;;;;;;20.69;67.04;99990.63;5078024;28;20923;-43
2022/08/24 03:34:42;;;;;;;2.55;1.00;;;;;;;20.65;67.29;99987.31;5083257;28;20048;-40
2022/08/24 03:37:09;;;;;;;1.63;0.70;;;;;;;20.65;67.06;99994.34;5081282;28;20056;-42
2022/08/24 03:39:36;;;;;;;3.13;0.85;;;;;;;20.64;67.47;99987.38;5077902;28;20052;-45
2022/08/24 03:42:03;;;;;;;4.57;1.15;;;;;;;20.61;67.31;99992.78;5077365;28;20051;-43
2022/08/24 03:44:29;;;;;;;2.17;1.23;;;;;;;20.57;67.50;99985.94;5081483;28;20094;-40
2022/08/24 03:46:56;;;;;;;2.72;1.13;;;;;;;20.54;67.56;99992.22;5075894;28;20073;-41
2022/08/24 03:49:23;;;;;;;3.17;0.82;;;;;;;20.56;67.36;99990.34;5082537;28;20117;-41
2022/08/24 03:51:50;;;;;;;3.25;0.73;;;;;;;20.53;67.44;99993.97;5078294;28;20550;-41
2022/08/24 03:54:17;;;;;;;1.55;0.90;;;;;;;20.50;67.17;100007.25;5079770;28;20522;-42
2022/08/24 03:56:44;;;;;;;2.78;0.95;;;;;;;20.50;67.37;100012.53;5083212;28;20082;-42
2022/08/24 03:59:11;;;;;;;3.00;1.20;;;;;;;20.51;67.03;100009.00;5083828;28;20169;-46
2022/08/24 04:01:38;;;;;;;4.45;0.80;;;;;;;20.51;67.33;100009.00;5085261;28;20048;-42
2022/08/24 04:04:04;;;;;;;1.98;1.20;;;;;;;20.55;67.85;100014.97;5085337;28;20052;-45
2022/08/24 04:06:31;;;;;;;1.60;0.80;;;;;;;20.58;67.64;100008.69;5083216;28;20048;-41
2022/08/24 04:08:57;;;;;;;1.92;0.57;;;;;;;20.58;67.58;100003.44;5084131;28;20052;-48
2022/08/24 04:11:28;;;;;;;1.80;0.80;;;;;;;20.61;67.67;100005.94;5084764;28;20048;-41
2022/08/24 04:13:56;;;;;;;1.75;0.52;;;;;;;20.63;67.48;99996.16;5080337;28;20052;-43
2022/08/24 04:16:24;;;;;;;2.85;0.73;;;;;;;20.63;67.63;99997.03;5081502;28;20055;-46
2022/08/24 04:18:51;;;;;;;1.77;0.93;;;;;;;20.64;67.78;99997.91;5064008;28;20698;-42
2022/08/24 04:21:21;;;;;;;1.65;0.88;;;;;;;20.65;67.49;99994.34;5088822;28;20097;-44
2022/08/24 04:23:49;;;;;;;1.55;0.73;;;;;;;20.64;67.46;100005.78;5079572;28;20082;-43
2022/08/24 04:26:17;;;;;;;2.47;0.80;;;;;;;20.62;67.76;100011.13;5081885;28;20066;-39
2022/08/24 04:29:05;;;;;;;3.20;0.90;;;;;;;20.61;67.55;100003.31;5085331;28;20399;-42
2022/08/24 04:31:35;;;;;;;1.02;0.40;;;;;;;20.61;67.41;100003.31;5087865;28;20044;-46
2022/08/24 04:34:02;;;;;;;2.65;1.05;;;;;;;20.59;67.60;99998.09;5082417;28;20051;-40
2022/08/24 04:36:29;;;;;;;1.75;0.70;;;;;;;20.58;67.75;100003.44;5081918;28;20487;-40
2022/08/24 04:38:55;;;;;;;4.40;0.70;;;;;;;20.58;67.77;99999.03;5084939;28;20109;-40
2022/08/24 04:41:22;;;;;;;1.17;0.47;;;;;;;20.57;68.00;100004.38;5085191;28;20414;-39
2022/08/24 04:43:58;;;;;;;1.17;0.57;;;;;;;20.58;67.81;100003.44;5088018;28;20114;-45
2022/08/24 04:46:25;;;;;;;1.20;0.65;;;;;;;20.57;67.85;99999.09;5084867;28;20047;-43
2022/08/24 04:48:52;;;;;;;1.67;0.80;;;;;;;20.55;67.98;100002.66;5081882;28;20055;-41
2022/08/24 04:51:20;;;;;;;1.70;0.70;;;;;;;20.55;67.94;99997.41;5081373;28;20160;-44
2022/08/24 04:53:48;;;;;;;1.55;0.75;;;;;;;20.55;68.08;99997.41;5083045;28;20059;-41
2022/08/24 04:56:19;;;;;;;1.35;0.82;;;;;;;20.57;68.06;100005.22;5081771;28;20528;-43
2022/08/24 04:58:46;;;;;;;1.05;0.80;;;;;;;20.57;68.04;100007.84;5084330;28;20387;-41
2022/08/24 05:01:18;;;;;;;1.60;0.75;;;;;;;20.60;68.16;100012.13;5085194;28;20097;-38
2022/08/24 05:03:47;;;;;;;1.67;0.80;;;;;;;20.60;68.21;100006.88;5085113;28;20044;-42
2022/08/24 05:06:15;;;;;;;6.93;0.60;;;;;;;20.60;67.97;100012.13;5079508;28;20097;-39
2022/08/24 05:08:42;;;;;;;2.75;0.70;;;;;;;20.61;68.10;100019.09;5082621;28;20105;-39
2022/08/24 05:11:09;;;;;;;1.88;0.60;;;;;;;20.64;67.97;100018.94;5084881;28;20047;-39
2022/08/24 05:13:36;;;;;;;2.80;0.90;;;;;;;20.65;68.32;100018.03;5083688;28;20629;-41
2022/08/24 05:16:11;;;;;;;3.22;0.75;;;;;;;20.66;68.33;100017.97;5086644;28;20071;-40
2022/08/24 05:18:39;;;;;;;1.33;0.80;;;;;;;20.68;68.06;100020.53;5077768;28;20074;-39
2022/08/24 05:21:09;;;;;;;1.00;0.40;;;;;;;20.71;67.75;100020.38;5087197;28;20052;-42
2022/08/24 05:23:37;;;;;;;1.50;0.80;;;;;;;20.72;68.18;100011.56;5047494;28;20044;-40
2022/08/24 05:26:09;;;;;;;1.45;0.85;;;;;;;20.74;68.01;100014.13;5064268;28;20040;-43
2022/08/24 05:28:37;;;;;;;1.65;0.60;;;;;;;20.72;68.13;100015.97;5084773;28;20043;-40
2022/08/24 05:31:07;;;;;;;1.73;0.60;;;;;;;20.74;68.03;100024.66;5084897;28;20048;-40
2022/08/24 05:33:34;;;;;;;1.20;0.60;;;;;;;20.74;67.85;100024.66;5050033;28;20083;-41
2022/08/24 05:36:02;;;;;;;1.98;0.80;;;;;;;20.76;67.30;100028.91;5085275;28;20093;-42
2022/08/24 05:38:30;;;;;;;4.63;0.63;;;;;;;20.77;67.79;100027.16;5085291;28;20040;-41
2022/08/24 05:41:02;;;;;;;1.20;0.50;;;;;;;20.78;67.67;100021.78;5086924;28;20052;-44
2022/08/24 05:43:29;;;;;;;1.48;0.63;;;;;;;20.78;67.20;100034.94;5088434;28;20570;-41
2022/08/24 05:45:56;;;;;;;1.55;1.08;;;;;;;20.78;67.56;100031.47;5083801;28;20053;-40
2022/08/24 05:48:22;;;;;;;1.50;0.60;;;;;;;20.80;67.31;100033.09;5084381;28;20098;-44
2022/08/24 05:50:52;;;;;;;1.70;0.98;;;;;;;20.83;67.28;100044.44;5086493;28;20490;-43
2022/08/24 05:53:18;;;;;;;;;;;;;;;20.71;67.33;100040.56;5081528;28;20434;-41
2022/08/24 05:55:45;;;;;;;3.58;1.20;;;;;;;20.83;66.72;100045.28;5090208;28;19929;-40
2022/08/24 05:58:12;;;;;;;2.00;0.57;;;;;;;20.86;66.53;100042.50;5087678;28;20102;-43
2022/08/24 06:00:58;;;;;;;2.15;0.90;;;;;;;20.87;66.16;100048.63;5081355;28;20055;-40
2022/08/24 06:03:25;;;;;;;1.30;0.82;;;;;;;20.87;66.64;100036.31;5050359;28;20044;-39
2022/08/24 06:05:53;;;;;;;2.88;0.70;;;;;;;20.89;66.33;100052.06;5087189;28;20051;-45
2022/08/24 06:08:20;;;;;;;1.48;1.10;;;;;;;20.92;66.84;100054.56;5085468;28;20135;-40
2022/08/24 06:10:47;;;;;;;1.08;0.70;;;;;;;20.92;66.61;100054.56;5085654;28;20538;-40
2022/08/24 06:13:15;;;;;;;2.72;1.10;;;;;;;20.95;66.81;100053.56;5083549;28;20521;-42
2022/08/24 06:15:42;;;;;;;2.28;1.00;;;;;;;20.96;66.33;100056.13;5065378;28;20044;-45
2022/08/24 06:18:25;;;;;;;1.17;0.82;;;;;;;21.00;66.24;100059.47;5077947;28;20044;-48
2022/08/24 06:20:52;;;;;;;3.38;0.80;;;;;;;21.03;66.25;100059.31;5086901;28;20040;-44
2022/08/24 06:23:23;;;;;;;1.48;0.75;;;;;;;21.04;65.90;100059.25;5081045;28;20044;-41
2022/08/24 06:28:42;;;;;;;2.65;0.70;;;;;;;21.11;66.32;100054.53;5072116;28;20040;-45
2022/08/24 06:31:08;;;;;;;6.05;1.98;;;;;;;21.18;66.13;100055.13;5089091;28;20051;-44
2022/08/24 06:33:35;;;;;;;3.92;1.20;;;;;;;21.21;66.02;100054.97;5083751;28;20051;-40
2022/08/24 06:36:02;;;;;;;1.98;1.27;;;;;;;21.24;66.08;100060.09;5084173;28;20411;-43
2022/08/24 06:38:29;;;;;;;1.10;0.70;;;;;;;21.27;65.30;100059.94;5087376;28;20138;-44
2022/08/24 06:40:57;;;;;;;1.15;0.77;;;;;;;21.31;65.44;100064.16;5088099;28;20055;-41
2022/08/24 06:43:24;;;;;;;2.90;0.63;;;;;;;21.37;65.78;100059.50;5063861;28;20085;-44
2022/08/24 06:45:52;;;;;;;2.45;0.60;;;;;;;21.45;65.61;100070.56;5085097;28;20048;-43
2022/08/24 06:48:19;;;;;;;1.65;0.73;;;;;;;21.51;65.17;100072.03;5084062;28;20044;-41
2022/08/24 06:50:46;;;;;;;1.52;1.02;;;;;;;21.56;65.33;100072.66;5086178;28;20043;-40
2022/08/24 06:53:13;;;;;;;2.75;0.90;;;;;;;21.61;64.95;100072.44;5083034;28;20047;-43
2022/08/24 06:55:50;;;;;;;2.33;0.77;;;;;;;21.61;64.89;100072.44;5079691;28;20544;-43
2022/08/24 06:58:17;;;;;;;1.55;1.08;;;;;;;21.64;65.03;100073.13;5080215;28;20459;-49
2022/08/24 07:00:45;;;;;;;1.75;0.80;;;;;;;21.67;64.78;100080.03;5062590;28;20551;-45
2022/08/24 07:03:13;;;;;;;1.58;0.88;;;;;;;21.72;64.85;100085.09;5079373;28;20679;-44
2022/08/24 07:05:40;;;;;;;3.47;1.00;;;;;;;21.72;65.33;100090.34;5079560;28;20071;-43
2022/08/24 07:08:07;;;;;;;2.60;0.80;;;;;;;21.71;65.12;100089.50;5087470;28;20044;-45
2022/08/24 07:10:34;;;;;;;2.58;0.98;;;;;;;21.73;65.01;100092.91;5084980;28;20047;-44
2022/08/24 07:13:00;;;;;;;1.95;1.13;;;;;;;21.96;65.49;100093.59;5080628;28;20475;-41
2022/08/24 07:15:27;;;;;;;2.55;0.90;;;;;;;22.43;64.85;100091.25;5083659;28;20463;-41
2022/08/24 07:17:54;;;;;;;4.38;0.88;;;;;;;22.99;64.02;100090.97;5082472;28;20055;-46
2022/08/24 07:20:20;;;;;;;2.92;1.08;;;;;;;23.30;62.94;100097.22;5084214;28;20048;-48
2022/08/24 07:22:47;;;;;;;2.17;0.90;;;;;;;23.78;62.43;100100.78;5085398;28;20120;-40
2022/08/24 07:25:14;;;;;;;1.35;0.80;;;;;;;24.11;60.62;100105.94;5071057;28;20048;-45
2022/08/24 07:27:41;;;;;;;3.30;0.82;;;;;;;24.15;60.23;100109.28;5086406;28;20075;-48
2022/08/24 07:30:08;;;;;;;3.65;0.80;;;;;;;24.18;60.23;100102.94;5079218;28;20317;-46
2022/08/24 07:32:52;;;;;;;2.08;1.00;;;;;;;24.18;59.92;100110.88;5084343;28;20126;-39
2022/08/24 07:35:19;;;;;;;1.52;0.90;;;;;;;24.15;60.34;100111.06;5088415;28;20107;-41
2022/08/24 07:37:46;;;;;;;1.23;0.50;;;;;;;24.46;59.91;100106.56;5084451;28;20048;-47
2022/08/24 07:40:12;;;;;;;9.65;1.52;;;;;;;24.75;59.20;100117.16;5090642;28;20040;-42
2022/08/24 07:42:39;;;;;;;1.60;1.08;;;;;;;24.95;58.57;100117.78;5091551;28;20379;-44
2022/08/24 07:45:06;;;;;;;1.33;0.52;;;;;;;24.94;58.12;100126.66;5088061;28;20048;-43
2022/08/24 07:47:33;;;;;;;3.28;0.60;;;;;;;24.81;57.83;100132.69;5087099;28;20134;-43
2022/08/24 07:50:07;;;;;;;2.95;1.23;;;;;;;24.62;58.07;100133.81;5084338;28;20049;-42
2022/08/24 07:52:34;;;;;;;1.10;0.75;;;;;;;24.47;57.94;100125.03;5083641;28;20051;-41
2022/08/24 07:55:01;;;;;;;1.13;0.70;;;;;;;24.38;58.33;100123.78;5092052;28;20048;-46
2022/08/24 07:57:28;;;;;;;2.08;0.70;;;;;;;24.29;58.53;100126.97;5088558;28;20052;-43
2022/08/24 07:59:57;;;;;;;1.67;0.60;;;;;;;24.22;58.64;100128.28;5088903;28;20044;-43
2022/08/24 08:02:23;;;;;;;2.35;0.93;;;;;;;24.19;58.82;100120.50;5089302;28;20455;-43
2022/08/24 08:04:58;;;;;;;2.10;1.13;;;;;;;24.17;58.49;100122.38;5072553;28;20134;-43
2022/08/24 08:07:27;;;;;;;3.22;1.08;;;;;;;24.09;58.95;100126.31;5089557;28;20098;-42
2022/08/24 08:09:54;;;;;;;3.38;1.88;;;;;;;24.03;58.52;100121.38;5090915;28;20102;-45
2022/08/24 08:12:20;;;;;;;1.33;0.98;;;;;;;23.94;58.52;100125.41;5090851;28;20052;-48
2022/08/24 08:14:47;;;;;;;1.30;0.68;;;;;;;23.94;59.40;100132.50;5085161;28;20110;-41
2022/08/24 08:17:15;;;;;;;3.38;1.10;;;;;;;23.93;58.86;100136.06;5082267;28;20045;-42
2022/08/24 08:19:42;;;;;;;1.17;0.70;;;;;;;23.94;58.83;100135.16;5086515;28;20693;-45
2022/08/24 08:24:56;;;;;;;2.35;0.60;;;;;;;24.01;59.21;100137.34;5069702;28;20654;-45
2022/08/24 08:27:24;;;;;;;4.47;0.70;;;;;;;24.05;58.94;100139.81;5086731;28;20044;-40
2022/08/24 08:29:50;;;;;;;1.83;0.90;;;;;;;24.05;59.17;100135.38;5067086;28;20052;-45
2022/08/24 08:32:18;;;;;;;1.70;0.80;;;;;;;24.05;58.94;100140.69;5088311;28;20052;-40
2022/08/24 08:34:46;;;;;;;4.88;0.80;;;;;;;24.08;59.31;100140.47;5070122;28;20044;-43
2022/08/24 08:37:13;;;;;;;1.25;0.80;;;;;;;24.08;58.95;100144.94;5066880;28;20044;-41
2022/08/24 08:39:40;;;;;;;2.85;0.93;;;;;;;24.09;59.12;100144.84;5085509;28;20106;-44
2022/08/24 08:45:26;;;;;;;3.58;1.15;;;;;;;24.00;59.30;100140.06;5043485;27;20420;-45
2022/08/24 08:54:19;;;;;;;3.22;1.20;;;;;;;24.00;59.03;100150.66;5047589;27;20413;-44
2022/08/24 08:57:21;;;;;;;4.47;1.05;;;;;;;24.09;59.59;100141.34;5033627;28;20052;-44
2022/08/24 09:08:16;;;;;;;2.10;0.60;;;;;;;24.36;58.76;100141.56;5030373;27;20425;-46
2022/08/24 09:35:32;;;;;;;2.53;2.33;;;;;;;27.07;54.93;100141.09;5007033;28;20411;-43
2022/08/24 09:41:15;;;;;;;2.10;0.80;;;;;;;27.67;53.32;100143.94;5057613;27;20413;-52
2022/08/24 10:13:33;;;;;;;2.05;1.67;;;;;;;29.22;50.23;100157.09;5102013;27;20385;-42
2022/08/24 10:55:44;;;;;;;0.75;0.30;;;;;;;29.51;48.17;100169.91;5095275;27;20746;-40
2022/08/24 11:03:26;;;;;;;1.83;1.08;;;;;;;29.53;46.84;100168.94;5052415;28;20929;-43
2022/08/24 11:05:55;;;;;;;2.25;2.05;;;;;;;29.22;47.48;100165.09;5003198;28;20046;-52
2022/08/24 11:08:26;;;;;;;1.88;1.67;;;;;;;29.02;48.12;100171.19;5013713;28;20038;-43
2022/08/24 11:11:10;;;;;;;2.72;1.63;;;;;;;28.72;48.14;100173.44;5015809;28;20054;-41
2022/08/24 11:13:51;;;;;;;2.08;1.45;;;;;;;28.58;48.46;100172.72;4999519;28;20050;-45
2022/08/24 11:16:30;;;;;;;2.72;1.80;;;;;;;28.43;49.02;100172.06;5004592;28;20058;-45
2022/08/24 11:19:00;;;;;;;1.58;1.48;;;;;;;28.40;49.18;100172.28;5001630;28;20511;-41
2022/08/24 11:27:05;;;;;;;0.85;0.50;;;;;;;28.11;50.02;100172.66;5025720;27;20414;-44
2022/08/24 11:29:55;;;;;;;1.10;0.70;;;;;;;27.86;50.49;100179.78;5012612;28;20713;-43
2022/08/24 11:32:32;;;;;;;1.52;0.90;;;;;;;27.82;50.63;100170.34;5001790;28;20411;-44
2022/08/24 11:35:02;;;;;;;1.45;0.65;;;;;;;27.71;51.78;100171.16;5004556;28;21828;-48
2022/08/24 11:37:34;;;;;;;1.27;0.40;;;;;;;27.70;51.59;100164.97;5001258;28;20046;-45
2022/08/24 11:40:01;;;;;;;1.45;0.90;;;;;;;27.61;51.53;100168.28;5005290;28;20045;-42
2022/08/24 11:43:07;;;;;;;2.50;0.40;;;;;;;27.42;51.65;100169.63;5016353;28;20418;-47
2022/08/24 11:56:47;;;;;;;0.68;0.30;;;;;;;27.18;51.48;100170.41;5097397;27;20981;-49
2022/08/24 11:59:29;;;;;;;1.00;0.52;;;;;;;27.05;52.51;100175.75;5051269;28;20049;-45
2022/08/24 12:02:02;;;;;;;1.92;0.32;;;;;;;27.01;52.50;100173.41;5053720;28;20037;-46
2022/08/24 12:05:09;;;;;;;0.70;0.70;;;;;;;26.81;52.00;100172.97;5059185;28;20176;-44
2022/08/24 12:10:31;;;;;;;5.00;0.73;;;;;;;26.81;52.69;100175.63;5048173;28;20831;-42
2022/08/24 12:13:19;;;;;;;1.98;1.42;;;;;;;26.73;52.80;100183.28;5027371;28;20041;-42
2022/08/24 12:16:12;;;;;;;3.53;1.42;;;;;;;26.59;54.05;100185.09;5025884;28;20049;-43
2022/08/24 13:08:32;;;;;;;0.73;0.50;;;;;;;27.02;58.45;100191.06;5020626;28;20402;-43
2022/08/24 13:11:07;;;;;;;1.10;0.45;;;;;;;27.19;57.81;100182.75;5004777;28;20054;-43
2022/08/24 13:19:30;;;;;;;1.08;0.50;;;;;;;27.66;57.21;100176.81;5074241;27;20386;-40
2022/08/24 13:35:28;;;;;;;0.85;0.50;;;;;;;28.54;54.91;100173.06;5031273;28;20407;-42
2022/08/24 13:44:05;;;;;;;0.82;0.82;;;;;;;28.99;53.05;100188.28;5084303;27;20379;-42
2022/08/24 13:54:40;;;;;;;1.23;1.13;;;;;;;28.87;52.51;100179.38;5057398;27;20403;-41
2022/08/24 13:57:35;;;;;;;1.35;1.25;;;;;;;28.70;52.34;100173.56;5033809;28;20057;-42
2022/08/24 14:00:42;;;;;;;2.13;1.13;;;;;;;28.58;52.08;100182.50;5059193;28;20053;-47
2022/08/24 14:48:16;;;;;;;3.22;1.73;;;;;;;28.63;51.77;100183.00;5046518;28;20401;-42
2022/08/24 14:50:56;;;;;;;1.30;1.20;;;;;;;28.70;51.60;100173.56;5042779;28;20045;-48
2022/08/24 14:59:04;;;;;;;0.80;0.50;;;;;;;28.78;51.24;100172.13;5086663;27;20399;-45
2022/08/24 15:06:50;;;;;;;1.40;0.70;;;;;;;28.93;51.80;100176.28;5051607;27;20390;-45
2022/08/24 15:09:25;;;;;;;1.40;0.40;;;;;;;28.99;51.44;100177.59;5021878;28;20637;-47
2022/08/24 15:11:59;;;;;;;2.20;0.75;;;;;;;29.09;51.02;100175.06;5020968;28;20045;-44
2022/08/24 15:14:45;;;;;;;3.20;1.23;;;;;;;29.09;51.16;100172.38;5015815;28;20056;-44
2022/08/24 15:17:16;;;;;;;2.70;0.93;;;;;;;29.12;51.00;100169.47;5019613;28;20064;-42
2022/08/24 15:27:56;;;;;;;2.35;0.50;;;;;;;28.86;49.89;100188.34;5054783;27;20862;-49
2022/08/24 15:30:29;;;;;;;2.67;2.05;;;;;;;28.83;50.87;100191.25;5013658;28;20566;-42
2022/08/24 15:33:14;;;;;;;2.15;0.80;;;;;;;28.72;50.56;100194.75;5008554;28;20054;-42
2022/08/24 15:36:02;;;;;;;0.98;0.60;;;;;;;28.64;51.62;100189.19;4998081;28;20046;-40
2022/08/24 15:41:29;;;;;;;1.33;0.88;;;;;;;28.33;51.22;100187.03;5092342;27;20417;-41
2022/08/24 15:43:59;;;;;;;1.55;1.38;;;;;;;28.31;51.79;100179.19;5060017;28;20056;-43
2022/08/24 15:46:32;;;;;;;3.10;0.93;;;;;;;28.21;51.19;100176.34;5078173;28;20549;-41
2022/08/24 15:49:12;;;;;;;3.03;2.33;;;;;;;28.14;52.32;100172.44;5059776;28;20479;-49
2022/08/24 15:57:28;;;;;;;1.67;1.00;;;;;;;27.94;52.47;100176.59;5023239;28;20398;-45
2022/08/24 16:02:24;;;;;;;5.30;0.85;;;;;;;27.95;52.47;100172.94;5015783;28;20050;-48
2022/08/24 16:03:42;;;;;;;1.55;0.73;;;;;;;27.99;52.52;100177.09;5005039;28;20053;-47
2022/08/24 16:11:37;;;;;;;4.20;1.65;;;;;;;28.20;52.78;100171.13;5009136;27;20411;-50
2022/08/24 16:14:10;;;;;;;4.15;1.77;;;;;;;28.26;52.16;100167.16;5015875;28;20054;-52
2022/08/24 16:16:41;;;;;;;2.58;2.38;;;;;;;28.31;51.55;100170.34;5001069;28;20104;-42
2022/08/24 16:19:29;;;;;;;2.17;2.00;;;;;;;28.25;52.21;100170.75;5002360;28;20054;-48
2022/08/24 16:22:01;;;;;;;2.88;2.58;;;;;;;28.30;51.56;100168.66;5001329;28;20046;-48
2022/08/24 16:29:46;;;;;;;2.83;1.17;;;;;;;28.31;51.42;100173.00;5015031;28;20425;-41
2022/08/24 16:42:45;;;;;;;3.55;0.82;;;;;;;28.20;51.48;100174.63;5036812;28;20389;-45
2022/08/24 16:45:17;;;;;;;2.15;0.93;;;;;;;28.13;52.49;100181.38;5019950;28;20045;-43
2022/08/24 16:47:45;;;;;;;4.18;0.60;;;;;;;28.08;52.97;100178.22;5020091;28;20096;-41
2022/08/24 16:50:16;;;;;;;3.65;0.80;;;;;;;28.09;52.67;100179.91;5020760;28;20405;-46
2022/08/24 16:52:44;;;;;;;0.63;0.52;;;;;;;28.10;52.05;100174.47;5017339;28;20668;-40
2022/08/24 16:55:11;;;;;;;2.20;0.60;;;;;;;28.17;52.81;100168.69;5020646;28;20046;-43
2022/08/24 16:57:41;;;;;;;1.25;0.50;;;;;;;28.19;52.84;100169.41;5024575;28;20553;-43
2022/08/24 17:00:15;;;;;;;2.45;1.15;;;;;;;28.20;52.45;100166.63;5037530;28;20051;-39
2022/08/24 17:02:44;;;;;;;1.45;0.70;;;;;;;28.12;52.20;100169.03;5037596;28;20053;-43
2022/08/24 17:05:11;;;;;;;1.77;1.00;;;;;;;28.06;51.72;100172.16;5035937;28;20049;-42
2022/08/24 17:07:38;;;;;;;0.73;0.60;;;;;;;27.99;52.13;100176.25;5026428;28;20530;-42